Time;durP1;ratioP1;P1;durP2;ratioP2;P2;SDS_P1;SDS_P2;PMS_P1;PMS_P2;Temp;Humidity;BMP_temperature;BMP_pressure;BME280_temperature;BME280_humidity;BME280_pressure;Samples;Min_cycle;Max_cycle;Signal;HPM_P1;HPM_P2
2022/01/08 00:00:06;;;;;;;13.53;6.20;;;;;;;;;;5120984;27;20528;-70
2022/01/08 00:02:31;;;;;;;13.63;6.73;;;;;;;;;;5122566;27;20259;-69
2022/01/08 00:04:58;;;;;;;11.00;5.97;;;;;;;;;;5123973;27;20199;-69
2022/01/08 00:07:23;;;;;;;8.13;5.60;;;;;;;;;;5122186;27;20203;-69
2022/01/08 00:09:48;;;;;;;9.03;5.50;;;;;;;;;;5121489;27;20559;-69
2022/01/08 00:12:14;;;;;;;6.10;4.03;;;;;;;;;;5107303;27;20175;-70
2022/01/08 00:14:39;;;;;;;9.17;4.23;;;;;;;;;;5123932;27;20601;-69
2022/01/08 00:17:04;;;;;;;11.40;4.73;;;;;;;;;;5118061;27;20563;-70
2022/01/08 00:19:30;;;;;;;8.90;4.40;;;;;;;;;;5124290;27;20175;-69
2022/01/08 00:21:55;;;;;;;8.57;4.63;;;;;;;;;;5122962;27;20252;-70
2022/01/08 00:24:20;;;;;;;7.50;4.47;;;;;;;;;;5124601;27;20236;-70
2022/01/08 00:26:45;;;;;;;13.83;5.07;;;;;;;;;;5104630;27;20223;-70
2022/01/08 00:29:10;;;;;;;7.97;4.60;;;;;;;;;;5122920;27;20636;-72
2022/01/08 00:31:35;;;;;;;13.13;4.87;;;;;;;;;;5125274;27;20190;-69
2022/01/08 00:34:01;;;;;;;9.07;4.37;;;;;;;;;;5108966;27;20179;-69
2022/01/08 00:36:26;;;;;;;10.67;5.83;;;;;;;;;;5132989;22;20286;-69
2022/01/08 00:38:51;;;;;;;10.00;4.77;;;;;;;;;;5071460;28;20193;-69
2022/01/08 00:41:16;;;;;;;6.60;4.17;;;;;;;;;;5069387;28;20243;-70
2022/01/08 00:43:41;;;;;;;7.87;4.50;;;;;;;;;;5061613;28;20207;-69
2022/01/08 00:46:07;;;;;;;11.70;4.20;;;;;;;;;;5052088;28;20259;-70
2022/01/08 00:48:32;;;;;;;7.20;3.90;;;;;;;;;;5043356;28;20200;-69
2022/01/08 00:50:57;;;;;;;8.70;4.17;;;;;;;;;;5068696;28;20704;-70
2022/01/08 00:53:22;;;;;;;9.30;4.20;;;;;;;;;;5072146;28;20176;-69
2022/01/08 00:55:48;;;;;;;14.43;5.47;;;;;;;;;;5068901;28;20283;-69
2022/01/08 00:58:13;;;;;;;9.33;4.43;;;;;;;;;;5071893;28;20334;-69
2022/01/08 01:00:38;;;;;;;15.17;4.40;;;;;;;;;;5069502;28;20199;-69
2022/01/08 01:03:04;;;;;;;10.10;4.20;;;;;;;;;;5074264;28;20257;-70
2022/01/08 01:05:29;;;;;;;7.60;4.37;;;;;;;;;;5068875;28;20631;-69
2022/01/08 01:07:54;;;;;;;7.00;3.57;;;;;;;;;;5091150;28;20183;-68
2022/01/08 01:10:20;;;;;;;8.00;3.63;;;;;;;;;;5073905;28;20169;-69
2022/01/08 01:12:45;;;;;;;6.40;3.87;;;;;;;;;;5068230;28;20529;-69
2022/01/08 01:15:12;;;;;;;11.17;3.90;;;;;;;;;;5057786;28;20727;-69
2022/01/08 01:17:38;;;;;;;13.00;4.07;;;;;;;;;;5068202;28;20394;-70
2022/01/08 01:20:03;;;;;;;10.00;3.60;;;;;;;;;;5068213;28;20173;-70
2022/01/08 01:22:39;;;;;;;9.20;4.53;;;;;;;;;;5063705;28;20213;-70
2022/01/08 01:25:07;;;;;;;7.20;3.87;;;;;;;;;;5066781;28;20233;-69
2022/01/08 01:30:16;;;;;;;8.60;3.83;;;;;;;;;;5070516;28;20332;-69
2022/01/08 01:49:03;;;;;;;10.37;4.07;;;;;;;;;;5072005;28;20171;-69
2022/01/08 01:51:29;;;;;;;10.57;3.83;;;;;;;;;;5071904;28;20207;-68
2022/01/08 01:53:54;;;;;;;10.70;3.80;;;;;;;;;;5072185;28;20189;-69
2022/01/08 01:56:20;;;;;;;7.63;3.50;;;;;;;;;;5053920;28;20196;-68
2022/01/08 01:58:46;;;;;;;7.83;3.40;;;;;;;;;;5075142;28;20184;-69
2022/01/08 02:01:11;;;;;;;5.27;3.40;;;;;;;;;;5071817;28;20735;-68
2022/01/08 02:03:36;;;;;;;8.13;3.90;;;;;;;;;;5068830;28;20178;-68
2022/01/08 02:06:02;;;;;;;9.67;4.47;;;;;;;;;;5071291;28;20177;-69
2022/01/08 02:08:28;;;;;;;10.53;4.03;;;;;;;;;;5056955;28;20692;-69
2022/01/08 02:10:53;;;;;;;8.60;3.70;;;;;;;;;;5071242;28;20181;-68
2022/01/08 02:13:21;;;;;;;5.97;4.23;;;;;;;;;;5070168;28;20241;-68
2022/01/08 02:15:50;;;;;;;9.87;4.77;;;;;;;;;;5067669;28;20180;-70
2022/01/08 02:18:15;;;;;;;10.20;4.53;;;;;;;;;;5063149;28;20227;-69
2022/01/08 02:20:40;;;;;;;14.37;4.90;;;;;;;;;;5070373;28;20236;-69
2022/01/08 02:23:05;;;;;;;8.10;4.93;;;;;;;;;;5068473;28;20185;-69
2022/01/08 02:25:30;;;;;;;8.10;4.17;;;;;;;;;;5067978;28;20195;-69
2022/01/08 02:27:56;;;;;;;9.07;4.17;;;;;;;;;;5070089;28;20201;-69
2022/01/08 02:30:21;;;;;;;14.77;4.53;;;;;;;;;;5072096;28;20778;-69
2022/01/08 02:32:46;;;;;;;10.50;4.53;;;;;;;;;;5068773;28;20227;-69
2022/01/08 02:35:11;;;;;;;8.97;3.90;;;;;;;;;;5055680;28;20173;-70
2022/01/08 02:37:36;;;;;;;9.10;3.70;;;;;;;;;;5070453;28;20734;-70
2022/01/08 02:40:04;;;;;;;6.43;3.90;;;;;;;;;;5071936;28;20268;-69
2022/01/08 02:42:37;;;;;;;17.87;3.90;;;;;;;;;;5051723;28;20201;-69
2022/01/08 02:45:03;;;;;;;6.70;4.00;;;;;;;;;;5067117;28;20478;-70
2022/01/08 02:47:28;;;;;;;9.97;3.47;;;;;;;;;;5070851;28;20207;-69
2022/01/08 02:49:53;;;;;;;6.47;3.13;;;;;;;;;;5072388;28;20965;-69
2022/01/08 02:52:19;;;;;;;10.67;4.53;;;;;;;;;;5073647;28;20188;-69
2022/01/08 02:54:44;;;;;;;9.20;3.00;;;;;;;;;;5074797;28;20180;-70
2022/01/08 02:57:09;;;;;;;8.20;3.90;;;;;;;;;;5077599;28;20568;-69
2022/01/08 02:59:35;;;;;;;13.80;4.03;;;;;;;;;;5072185;28;20188;-69
2022/01/08 03:02:00;;;;;;;10.60;3.93;;;;;;;;;;5077910;28;20216;-70
2022/01/08 03:04:25;;;;;;;13.40;4.00;;;;;;;;;;5078558;28;20181;-69
2022/01/08 03:06:50;;;;;;;6.07;3.17;;;;;;;;;;5070058;28;20284;-69
2022/01/08 03:09:16;;;;;;;7.03;4.83;;;;;;;;;;5063927;28;20184;-69
2022/01/08 03:11:43;;;;;;;9.37;3.43;;;;;;;;;;5070222;28;20172;-69
2022/01/08 03:14:08;;;;;;;13.47;4.00;;;;;;;;;;5072814;28;20177;-70
2022/01/08 03:16:33;;;;;;;12.13;3.03;;;;;;;;;;5072133;28;20288;-69
2022/01/08 03:19:07;;;;;;;8.60;2.73;;;;;;;;;;5066270;28;20185;-70
2022/01/08 03:21:35;;;;;;;12.40;2.63;;;;;;;;;;5069750;28;20678;-69
2022/01/08 03:24:01;;;;;;;9.83;3.07;;;;;;;;;;5070293;28;20172;-69
2022/01/08 03:26:27;;;;;;;7.40;2.97;;;;;;;;;;5070302;28;20685;-69
2022/01/08 03:28:52;;;;;;;8.60;2.73;;;;;;;;;;5074353;28;20180;-69
2022/01/08 03:31:18;;;;;;;8.57;2.23;;;;;;;;;;5070822;28;20173;-69
2022/01/08 03:33:44;;;;;;;8.23;2.47;;;;;;;;;;5078209;28;20185;-69
2022/01/08 03:36:09;;;;;;;8.50;2.50;;;;;;;;;;5071983;28;20231;-69
2022/01/08 03:38:35;;;;;;;8.70;2.30;;;;;;;;;;5074523;28;20212;-69
2022/01/08 03:41:00;;;;;;;7.60;2.40;;;;;;;;;;5080417;28;20307;-70
2022/01/08 03:43:26;;;;;;;6.60;2.43;;;;;;;;;;5073249;28;20817;-69
2022/01/08 03:45:51;;;;;;;7.50;2.20;;;;;;;;;;5070631;28;20528;-67
2022/01/08 03:48:32;;;;;;;6.17;2.70;;;;;;;;;;5078925;28;20395;-68
2022/01/08 03:50:57;;;;;;;7.00;2.33;;;;;;;;;;5074297;28;20185;-69
2022/01/08 03:53:23;;;;;;;7.67;2.27;;;;;;;;;;5072428;28;20672;-69
2022/01/08 03:55:49;;;;;;;5.77;1.60;;;;;;;;;;5063821;28;20715;-69
2022/01/08 03:58:14;;;;;;;6.60;2.80;;;;;;;;;;5069255;28;20192;-68
2022/01/08 04:00:40;;;;;;;5.90;2.00;;;;;;;;;;5069661;28;20211;-69
2022/01/08 04:03:05;;;;;;;8.00;2.20;;;;;;;;;;5050413;28;20185;-69
2022/01/08 04:05:30;;;;;;;5.43;2.70;;;;;;;;;;5073793;28;20177;-70
2022/01/08 04:07:55;;;;;;;12.27;3.33;;;;;;;;;;5067096;28;20224;-69
2022/01/08 04:10:21;;;;;;;9.07;2.63;;;;;;;;;;5061517;28;20688;-69
2022/01/08 04:12:51;;;;;;;8.90;3.67;;;;;;;;;;5068957;28;20173;-68
2022/01/08 04:15:33;;;;;;;8.03;2.90;;;;;;;;;;5071061;28;20263;-68
2022/01/08 04:17:58;;;;;;;8.73;2.30;;;;;;;;;;5068820;28;20193;-69
2022/01/08 04:20:25;;;;;;;6.27;2.13;;;;;;;;;;5068867;28;20262;-68
2022/01/08 04:22:51;;;;;;;9.10;2.30;;;;;;;;;;5067419;28;20274;-68
2022/01/08 04:25:18;;;;;;;5.70;1.80;;;;;;;;;;5070529;28;20553;-69
2022/01/08 04:27:43;;;;;;;4.63;2.30;;;;;;;;;;5070885;28;20196;-68
2022/01/08 04:30:08;;;;;;;4.67;1.93;;;;;;;;;;5068975;28;20280;-68
2022/01/08 04:32:34;;;;;;;8.87;2.43;;;;;;;;;;5068552;28;20314;-68
2022/01/08 04:34:59;;;;;;;6.00;2.50;;;;;;;;;;5072066;28;20184;-68
2022/01/08 04:37:24;;;;;;;5.57;2.27;;;;;;;;;;5069480;28;20296;-69
2022/01/08 04:39:49;;;;;;;12.07;2.47;;;;;;;;;;5075100;28;20603;-68
2022/01/08 04:42:14;;;;;;;5.93;3.03;;;;;;;;;;5070691;28;20200;-68
2022/01/08 04:44:39;;;;;;;11.33;3.97;;;;;;;;;;5069659;28;20177;-69
2022/01/08 04:47:05;;;;;;;5.80;2.70;;;;;;;;;;5056145;28;20193;-69
2022/01/08 04:49:30;;;;;;;7.43;3.63;;;;;;;;;;5070984;28;20652;-68
2022/01/08 04:51:56;;;;;;;6.23;2.77;;;;;;;;;;5065389;28;20199;-69
2022/01/08 04:54:21;;;;;;;6.63;3.13;;;;;;;;;;5070552;28;20199;-69
2022/01/08 04:56:46;;;;;;;10.80;2.70;;;;;;;;;;5068229;28;20193;-67
2022/01/08 04:59:11;;;;;;;5.23;3.37;;;;;;;;;;5067738;28;20182;-69
2022/01/08 05:01:37;;;;;;;6.90;2.77;;;;;;;;;;5056168;28;20197;-69
2022/01/08 05:04:02;;;;;;;10.47;3.50;;;;;;;;;;5068450;28;20212;-69
2022/01/08 05:06:27;;;;;;;7.67;3.30;;;;;;;;;;5069542;28;20177;-69
2022/01/08 05:08:52;;;;;;;6.30;3.30;;;;;;;;;;5069978;28;20211;-68
2022/01/08 05:11:17;;;;;;;10.10;3.10;;;;;;;;;;5071940;28;20665;-70
2022/01/08 05:13:44;;;;;;;10.07;3.40;;;;;;;;;;5068110;28;20173;-69
2022/01/08 05:16:10;;;;;;;7.57;3.23;;;;;;;;;;5068675;28;20223;-69
2022/01/08 05:18:35;;;;;;;4.43;2.97;;;;;;;;;;5068698;28;20206;-69
2022/01/08 05:21:37;;;;;;;10.37;3.90;;;;;;;;;;5071845;28;20591;-69
2022/01/08 05:23:52;;;;;;;12.00;3.67;;;;;;;;;;5060339;28;20277;-70
2022/01/08 05:26:18;;;;;;;7.23;3.90;;;;;;;;;;5068284;28;20177;-68
2022/01/08 05:28:44;;;;;;;6.53;3.60;;;;;;;;;;5070386;28;20745;-69
2022/01/08 05:31:09;;;;;;;9.10;3.53;;;;;;;;;;5067991;28;20264;-69
2022/01/08 05:33:35;;;;;;;13.60;3.77;;;;;;;;;;5068235;28;20197;-69
2022/01/08 05:36:00;;;;;;;8.93;3.60;;;;;;;;;;5074500;28;20181;-69
2022/01/08 05:38:25;;;;;;;8.73;4.40;;;;;;;;;;5071271;28;20225;-69
2022/01/08 05:40:50;;;;;;;6.53;3.47;;;;;;;;;;5067046;28;20196;-70
2022/01/08 05:43:15;;;;;;;11.10;4.27;;;;;;;;;;5067005;28;20185;-69
2022/01/08 05:45:41;;;;;;;14.27;4.57;;;;;;;;;;5068039;28;20177;-69
2022/01/08 05:48:06;;;;;;;6.07;3.40;;;;;;;;;;5065850;28;20211;-69
2022/01/08 05:50:32;;;;;;;7.83;3.40;;;;;;;;;;5060598;28;20188;-69
2022/01/08 05:52:57;;;;;;;6.17;3.40;;;;;;;;;;5068222;28;20184;-69
2022/01/08 05:55:22;;;;;;;7.00;3.57;;;;;;;;;;5070855;28;20264;-69
2022/01/08 05:57:47;;;;;;;8.57;3.73;;;;;;;;;;5075146;28;20232;-69
2022/01/08 06:00:13;;;;;;;10.37;5.03;;;;;;;;;;5067635;28;20183;-68
2022/01/08 06:02:38;;;;;;;8.93;3.87;;;;;;;;;;5062866;28;20262;-69
2022/01/08 06:05:04;;;;;;;11.80;4.93;;;;;;;;;;5069843;28;20231;-69
2022/01/08 06:07:29;;;;;;;6.63;3.60;;;;;;;;;;5071474;28;20196;-69
2022/01/08 06:09:54;;;;;;;6.40;3.37;;;;;;;;;;5079868;28;20199;-69
2022/01/08 06:12:19;;;;;;;14.03;3.20;;;;;;;;;;5076733;28;20502;-68
2022/01/08 06:14:44;;;;;;;8.90;4.33;;;;;;;;;;5072288;28;20173;-70
2022/01/08 06:17:10;;;;;;;9.07;4.57;;;;;;;;;;5070731;28;20520;-69
2022/01/08 06:19:36;;;;;;;10.90;4.10;;;;;;;;;;5072110;28;20185;-68
2022/01/08 06:22:01;;;;;;;12.40;5.10;;;;;;;;;;5079789;28;20203;-69
2022/01/08 06:24:26;;;;;;;6.80;4.23;;;;;;;;;;5071895;28;20268;-69
2022/01/08 06:26:51;;;;;;;10.40;3.57;;;;;;;;;;5059109;28;20719;-69
2022/01/08 06:29:17;;;;;;;9.90;4.03;;;;;;;;;;5062477;28;20173;-69
2022/01/08 06:31:42;;;;;;;12.73;5.80;;;;;;;;;;5078962;28;20181;-68
2022/01/08 06:34:07;;;;;;;7.53;2.90;;;;;;;;;;5076069;28;20268;-69
2022/01/08 06:36:58;;;;;;;10.70;3.80;;;;;;;;;;5069205;28;20203;-70
2022/01/08 06:39:23;;;;;;;9.80;3.00;;;;;;;;;;5047965;28;20221;-70
2022/01/08 06:41:48;;;;;;;10.70;3.80;;;;;;;;;;5040503;28;20690;-70
2022/01/08 06:44:13;;;;;;;8.97;4.10;;;;;;;;;;5049266;28;20257;-70
2022/01/08 06:46:40;;;;;;;10.60;3.93;;;;;;;;;;5045475;28;20173;-71
2022/01/08 06:49:05;;;;;;;6.27;3.50;;;;;;;;;;5068089;28;20223;-70
2022/01/08 06:51:30;;;;;;;13.37;4.63;;;;;;;;;;5070963;28;20177;-71
2022/01/08 06:53:56;;;;;;;10.33;4.00;;;;;;;;;;5068935;28;20264;-70
2022/01/08 06:56:21;;;;;;;14.57;5.23;;;;;;;;;;5070879;28;20184;-71
2022/01/08 06:58:46;;;;;;;9.23;3.83;;;;;;;;;;5072502;28;20627;-70
2022/01/08 07:01:11;;;;;;;8.53;3.17;;;;;;;;;;5074662;28;20685;-71
2022/01/08 07:03:37;;;;;;;16.50;4.47;;;;;;;;;;5070364;28;20587;-70
2022/01/08 07:06:02;;;;;;;10.13;4.73;;;;;;;;;;5076117;28;20200;-69
2022/01/08 07:08:27;;;;;;;9.27;4.37;;;;;;;;;;5070786;28;20686;-69
2022/01/08 07:10:52;;;;;;;8.23;4.20;;;;;;;;;;5047359;28;20181;-70
2022/01/08 07:13:18;;;;;;;12.83;5.00;;;;;;;;;;5067979;28;20220;-69
2022/01/08 07:15:43;;;;;;;13.00;5.50;;;;;;;;;;5053109;28;20558;-72
2022/01/08 07:18:08;;;;;;;8.67;4.67;;;;;;;;;;5070380;28;20208;-70
2022/01/08 07:20:33;;;;;;;12.00;4.77;;;;;;;;;;5074839;28;20172;-69
2022/01/08 07:22:59;;;;;;;14.33;4.87;;;;;;;;;;5070452;28;20257;-69
2022/01/08 07:25:24;;;;;;;14.30;7.03;;;;;;;;;;5066966;28;20224;-68
2022/01/08 07:27:49;;;;;;;8.43;5.67;;;;;;;;;;5068759;28;20197;-71
2022/01/08 07:30:15;;;;;;;12.33;5.50;;;;;;;;;;5071476;28;20177;-69
2022/01/08 07:32:44;;;;;;;15.13;6.97;;;;;;;;;;5069589;28;20188;-69
2022/01/08 07:35:10;;;;;;;12.50;7.20;;;;;;;;;;5071189;28;20243;-69
2022/01/08 07:37:35;;;;;;;18.07;6.80;;;;;;;;;;5069993;28;20638;-71
2022/01/08 07:40:00;;;;;;;11.43;6.77;;;;;;;;;;5070760;28;20182;-69
2022/01/08 07:42:25;;;;;;;17.73;7.20;;;;;;;;;;5066951;28;20589;-71
2022/01/08 07:44:50;;;;;;;13.43;6.70;;;;;;;;;;5071132;28;20169;-70
2022/01/08 07:47:17;;;;;;;19.67;7.30;;;;;;;;;;5069943;28;20573;-70
2022/01/08 07:49:42;;;;;;;16.63;8.60;;;;;;;;;;5070486;28;20630;-69
2022/01/08 07:52:07;;;;;;;17.23;7.90;;;;;;;;;;5068676;28;20184;-69
2022/01/08 07:54:32;;;;;;;13.30;7.77;;;;;;;;;;5072463;28;20181;-69
2022/01/08 07:56:58;;;;;;;18.83;8.63;;;;;;;;;;5068448;28;20196;-69
2022/01/08 07:59:23;;;;;;;25.03;9.83;;;;;;;;;;5070808;28;20181;-70
2022/01/08 08:01:48;;;;;;;16.97;10.70;;;;;;;;;;5065466;28;20280;-69
2022/01/08 08:04:13;;;;;;;18.03;9.80;;;;;;;;;;5069284;28;20276;-70
2022/01/08 08:06:42;;;;;;;19.53;10.60;;;;;;;;;;5065049;28;20180;-69
2022/01/08 08:09:07;;;;;;;19.30;11.17;;;;;;;;;;5066720;28;20181;-70
2022/01/08 08:11:32;;;;;;;17.13;12.50;;;;;;;;;;5068520;28;20181;-69
2022/01/08 08:13:58;;;;;;;21.30;12.47;;;;;;;;;;5068663;28;20562;-69
2022/01/08 08:16:23;;;;;;;28.87;12.40;;;;;;;;;;5071540;28;20221;-70
2022/01/08 08:18:48;;;;;;;21.03;12.17;;;;;;;;;;5069742;28;20192;-70
2022/01/08 08:21:13;;;;;;;22.40;13.17;;;;;;;;;;5054325;28;20205;-69
2022/01/08 08:23:39;;;;;;;23.07;13.27;;;;;;;;;;5070181;28;20184;-70
2022/01/08 08:26:04;;;;;;;18.73;12.23;;;;;;;;;;5069791;28;20180;-69
2022/01/08 08:28:30;;;;;;;25.17;13.70;;;;;;;;;;5070915;28;20289;-70
2022/01/08 08:30:55;;;;;;;20.73;13.63;;;;;;;;;;5057221;28;20197;-70
2022/01/08 08:33:20;;;;;;;19.07;12.77;;;;;;;;;;5063659;28;20193;-69
2022/01/08 08:35:47;;;;;;;22.40;13.77;;;;;;;;;;5065202;28;20184;-70
2022/01/08 08:38:12;;;;;;;22.27;13.80;;;;;;;;;;5067560;28;20248;-69
2022/01/08 08:40:38;;;;;;;22.20;13.90;;;;;;;;;;5063987;28;20220;-69
2022/01/08 08:43:03;;;;;;;20.80;14.37;;;;;;;;;;5061932;28;20169;-69
2022/01/08 08:45:28;;;;;;;27.77;15.00;;;;;;;;;;5067873;28;20169;-69
2022/01/08 08:47:56;;;;;;;22.33;14.93;;;;;;;;;;5070151;28;20197;-70
2022/01/08 08:50:23;;;;;;;20.53;13.73;;;;;;;;;;5062599;28;20211;-70
2022/01/08 08:52:50;;;;;;;24.20;13.57;;;;;;;;;;5070185;28;20184;-70
2022/01/08 08:55:17;;;;;;;21.60;13.20;;;;;;;;;;5066849;28;20797;-70
2022/01/08 08:57:43;;;;;;;21.67;13.13;;;;;;;;;;5047422;28;20189;-69
2022/01/08 09:00:08;;;;;;;21.53;13.63;;;;;;;;;;5039773;28;20192;-69
2022/01/08 09:02:33;;;;;;;18.93;12.77;;;;;;;;;;5052800;28;20625;-69
2022/01/08 09:04:59;;;;;;;20.77;12.73;;;;;;;;;;5039536;28;20177;-69
2022/01/08 09:07:24;;;;;;;19.17;12.50;;;;;;;;;;5054042;28;20200;-69
2022/01/08 09:09:49;;;;;;;18.37;12.60;;;;;;;;;;5052874;28;20599;-70
2022/01/08 09:12:16;;;;;;;21.50;12.73;;;;;;;;;;5051289;28;20189;-70
2022/01/08 09:14:42;;;;;;;22.53;12.67;;;;;;;;;;5051403;28;20204;-69
2022/01/08 09:17:07;;;;;;;18.97;12.13;;;;;;;;;;5045982;28;20228;-69
2022/01/08 09:19:32;;;;;;;17.90;13.27;;;;;;;;;;5058553;28;20561;-69
2022/01/08 09:21:58;;;;;;;23.37;13.60;;;;;;;;;;5049941;28;20626;-70
2022/01/08 09:24:23;;;;;;;22.53;13.03;;;;;;;;;;5054473;28;20177;-70
2022/01/08 09:26:48;;;;;;;27.70;14.10;;;;;;;;;;5053952;28;20223;-69
2022/01/08 09:29:14;;;;;;;21.93;13.47;;;;;;;;;;5050181;28;20173;-70
2022/01/08 09:31:39;;;;;;;22.93;14.47;;;;;;;;;;5052899;28;20180;-69
2022/01/08 09:34:06;;;;;;;19.57;13.50;;;;;;;;;;5055035;28;20795;-69
2022/01/08 09:36:31;;;;;;;21.67;13.30;;;;;;;;;;5050311;28;20604;-68
2022/01/08 09:38:56;;;;;;;20.83;13.60;;;;;;;;;;5049076;28;20242;-70
2022/01/08 09:41:22;;;;;;;25.87;14.90;;;;;;;;;;5046389;28;21471;-70
2022/01/08 09:43:47;;;;;;;21.43;12.73;;;;;;;;;;5046898;28;20177;-69
2022/01/08 09:46:15;;;;;;;23.03;12.97;;;;;;;;;;5033570;28;20181;-69
2022/01/08 09:48:40;;;;;;;20.97;12.73;;;;;;;;;;5050234;28;20200;-70
2022/01/08 09:51:06;;;;;;;19.57;12.30;;;;;;;;;;5055039;28;20207;-69
2022/01/08 09:53:31;;;;;;;19.13;13.23;;;;;;;;;;5048435;28;20192;-70
2022/01/08 09:55:56;;;;;;;17.63;13.10;;;;;;;;;;5044193;28;20199;-70
2022/01/08 09:58:22;;;;;;;18.67;12.43;;;;;;;;;;5048336;28;20582;-70
2022/01/08 10:00:47;;;;;;;17.60;12.33;;;;;;;;;;5052934;28;20241;-68
2022/01/08 10:03:13;;;;;;;16.53;12.23;;;;;;;;;;5051951;28;20173;-68
2022/01/08 10:05:45;;;;;;;19.87;12.43;;;;;;;;;;5052510;28;20353;-70
2022/01/08 10:08:12;;;;;;;19.83;13.03;;;;;;;;;;5053534;28;20204;-70
2022/01/08 10:10:37;;;;;;;16.43;12.13;;;;;;;;;;5048599;28;20204;-69
2022/01/08 10:13:02;;;;;;;20.43;12.90;;;;;;;;;;5052087;28;20272;-69
2022/01/08 10:18:27;;;;;;;20.47;11.93;;;;;;;;;;5052872;28;20270;-70
2022/01/08 10:20:52;;;;;;;22.87;14.83;;;;;;;;;;5050498;28;20578;-69
2022/01/08 10:23:25;;;;;;;18.67;11.97;;;;;;;;;;5053364;28;20181;-69
2022/01/08 10:25:54;;;;;;;18.20;11.93;;;;;;;;;;5051011;28;20190;-69
2022/01/08 10:28:30;;;;;;;20.33;12.60;;;;;;;;;;5051098;28;20245;-70
2022/01/08 10:31:05;;;;;;;15.67;12.20;;;;;;;;;;5048938;28;20185;-69
2022/01/08 10:33:30;;;;;;;21.53;13.23;;;;;;;;;;5052671;28;20195;-69
2022/01/08 10:35:55;;;;;;;24.63;14.73;;;;;;;;;;5051020;28;20189;-69
2022/01/08 10:38:21;;;;;;;27.63;17.57;;;;;;;;;;5036573;28;20226;-69
2022/01/08 10:40:46;;;;;;;27.53;18.50;;;;;;;;;;5032309;28;20563;-69
2022/01/08 10:43:25;;;;;;;26.90;18.43;;;;;;;;;;5054209;28;20661;-70
2022/01/08 10:45:50;;;;;;;25.27;16.53;;;;;;;;;;5050666;28;20218;-69
2022/01/08 10:48:26;;;;;;;26.33;14.47;;;;;;;;;;5055117;28;20213;-70
2022/01/08 10:50:51;;;;;;;20.37;13.67;;;;;;;;;;5050143;28;20651;-69
2022/01/08 10:53:16;;;;;;;20.10;12.30;;;;;;;;;;5050220;28;20234;-70
2022/01/08 10:55:42;;;;;;;19.27;12.60;;;;;;;;;;5054669;28;20172;-70
2022/01/08 10:58:07;;;;;;;20.27;12.00;;;;;;;;;;5034996;28;20628;-71
2022/01/08 11:00:32;;;;;;;17.90;11.13;;;;;;;;;;5054973;28;20165;-70
2022/01/08 11:02:58;;;;;;;15.87;10.80;;;;;;;;;;5059374;28;20177;-70
2022/01/08 11:05:25;;;;;;;17.10;10.60;;;;;;;;;;5055316;28;20184;-70
2022/01/08 11:07:50;;;;;;;18.50;10.57;;;;;;;;;;5045186;28;20343;-71
2022/01/08 11:10:18;;;;;;;14.87;10.37;;;;;;;;;;5052484;28;20665;-68
2022/01/08 11:12:46;;;;;;;15.23;9.87;;;;;;;;;;5055840;28;20177;-68
2022/01/08 11:17:45;;;;;;;18.23;10.83;;;;;;;;;;5055035;28;20235;-71
2022/01/08 11:20:12;;;;;;;15.73;9.27;;;;;;;;;;5052387;28;20185;-70
2022/01/08 11:22:47;;;;;;;14.93;9.93;;;;;;;;;;5054772;28;20223;-70
2022/01/08 11:25:15;;;;;;;17.53;9.57;;;;;;;;;;5037942;28;20207;-70
2022/01/08 11:27:46;;;;;;;14.23;9.50;;;;;;;;;;5056460;28;20205;-68
2022/01/08 11:30:19;;;;;;;15.03;9.33;;;;;;;;;;5054231;28;20180;-69
2022/01/08 11:32:44;;;;;;;18.83;10.33;;;;;;;;;;5039057;28;20181;-69
2022/01/08 11:35:10;;;;;;;12.57;9.30;;;;;;;;;;5058246;28;20237;-69
2022/01/08 11:37:36;;;;;;;15.60;7.67;;;;;;;;;;5035853;28;20228;-69
2022/01/08 11:40:05;;;;;;;10.53;7.67;;;;;;;;;;5053009;28;20201;-71
2022/01/08 11:42:32;;;;;;;11.53;8.43;;;;;;;;;;5036593;28;20209;-68
2022/01/08 11:44:59;;;;;;;13.20;7.03;;;;;;;;;;5052980;28;20423;-69
2022/01/08 11:47:27;;;;;;;11.53;8.73;;;;;;;;;;5056521;28;20270;-69
2022/01/08 11:49:53;;;;;;;16.47;8.57;;;;;;;;;;5050576;28;20204;-69
2022/01/08 11:52:20;;;;;;;15.30;8.43;;;;;;;;;;5053921;28;20184;-70
2022/01/08 11:54:46;;;;;;;11.23;7.70;;;;;;;;;;5053480;28;20255;-69
2022/01/08 11:57:16;;;;;;;16.17;7.57;;;;;;;;;;5056856;28;20235;-68
2022/01/08 11:59:42;;;;;;;11.73;7.10;;;;;;;;;;5052200;28;20177;-69
2022/01/08 12:02:08;;;;;;;12.97;7.57;;;;;;;;;;5054589;28;20978;-69
2022/01/08 12:04:34;;;;;;;13.53;6.70;;;;;;;;;;5055277;28;20188;-69
2022/01/08 12:07:18;;;;;;;12.03;7.10;;;;;;;;;;5051769;28;20204;-69
2022/01/08 12:09:43;;;;;;;10.83;6.90;;;;;;;;;;5054115;28;20546;-68
2022/01/08 12:12:08;;;;;;;10.53;6.67;;;;;;;;;;5033467;28;20191;-69
2022/01/08 12:14:33;;;;;;;11.53;7.07;;;;;;;;;;5052820;28;20237;-69
2022/01/08 12:17:11;;;;;;;10.63;6.70;;;;;;;;;;5059338;28;20208;-69
2022/01/08 12:19:38;;;;;;;9.70;5.90;;;;;;;;;;5053898;28;20299;-69
2022/01/08 12:22:15;;;;;;;11.20;6.90;;;;;;;;;;5050976;28;20662;-69
2022/01/08 12:24:40;;;;;;;11.77;6.83;;;;;;;;;;5049990;28;20549;-68
2022/01/08 12:27:19;;;;;;;12.50;7.07;;;;;;;;;;5040283;28;20188;-69
2022/01/08 12:29:44;;;;;;;14.67;6.87;;;;;;;;;;5053739;28;20560;-69
2022/01/08 12:32:19;;;;;;;14.90;6.70;;;;;;;;;;5053874;28;20192;-70
2022/01/08 12:34:58;;;;;;;9.67;6.83;;;;;;;;;;5052551;28;20210;-69
2022/01/08 12:37:33;;;;;;;14.03;6.30;;;;;;;;;;5078558;22;20905;-69
2022/01/08 12:40:00;;;;;;;9.53;5.80;;;;;;;;;;5113138;27;20198;-69
2022/01/08 12:42:28;;;;;;;8.33;5.47;;;;;;;;;;5113034;27;20801;-69
2022/01/08 12:45:20;;;;;;;8.13;5.30;;;;;;;;;;5111922;27;20183;-70
2022/01/08 12:47:46;;;;;;;8.03;4.60;;;;;;;;;;5112267;27;21599;-69
2022/01/08 12:50:19;;;;;;;8.00;4.70;;;;;;;;;;5111461;27;20183;-68
2022/01/08 12:53:03;;;;;;;7.10;4.63;;;;;;;;;;5112273;27;20964;-69
2022/01/08 12:55:28;;;;;;;6.13;3.67;;;;;;;;;;5124741;27;20180;-69
2022/01/08 12:57:53;;;;;;;12.17;4.13;;;;;;;;;;5129475;27;20195;-69
2022/01/08 13:00:18;;;;;;;9.33;4.17;;;;;;;;;;5135032;27;20175;-69
2022/01/08 13:02:47;;;;;;;7.53;4.07;;;;;;;;;;5121825;27;20199;-70
2022/01/08 13:05:12;;;;;;;6.50;3.87;;;;;;;;;;5110544;27;20232;-69
2022/01/08 13:07:46;;;;;;;9.33;4.57;;;;;;;;;;5115141;27;20854;-70
2022/01/08 13:10:11;;;;;;;8.77;3.73;;;;;;;;;;5114904;27;20182;-69
2022/01/08 13:12:37;;;;;;;8.27;4.10;;;;;;;;;;5093475;27;20183;-69
2022/01/08 13:15:03;;;;;;;5.73;4.23;;;;;;;;;;5094239;27;20607;-69
2022/01/08 13:17:28;;;;;;;6.97;3.40;;;;;;;;;;5115477;27;20620;-69
2022/01/08 13:20:00;;;;;;;8.40;4.60;;;;;;;;;;5111984;27;20179;-69
2022/01/08 13:22:26;;;;;;;7.67;4.87;;;;;;;;;;5110692;27;20241;-69
2022/01/08 13:24:52;;;;;;;8.70;4.50;;;;;;;;;;5113413;27;20174;-68
2022/01/08 13:27:23;;;;;;;7.13;4.17;;;;;;;;;;5109961;27;20186;-69
2022/01/08 13:29:49;;;;;;;9.43;5.17;;;;;;;;;;5112055;27;20179;-70
2022/01/08 13:32:18;;;;;;;10.53;5.27;;;;;;;;;;5095693;27;20495;-69
2022/01/08 13:34:45;;;;;;;8.73;4.33;;;;;;;;;;5095100;27;20179;-71
2022/01/08 13:37:19;;;;;;;4.40;3.63;;;;;;;;;;5111841;27;20224;-69
2022/01/08 13:39:50;;;;;;;10.37;5.43;;;;;;;;;;5111895;27;20258;-68
2022/01/08 13:42:30;;;;;;;5.53;4.07;;;;;;;;;;5115843;27;20234;-69
2022/01/08 13:44:57;;;;;;;8.10;5.73;;;;;;;;;;5111616;27;20180;-68
2022/01/08 13:47:31;;;;;;;6.33;3.80;;;;;;;;;;5110857;27;20195;-68
2022/01/08 13:49:58;;;;;;;6.23;3.87;;;;;;;;;;5116863;27;20377;-68
2022/01/08 13:52:34;;;;;;;6.67;3.43;;;;;;;;;;5113807;27;20202;-69
2022/01/08 13:55:25;;;;;;;7.13;3.90;;;;;;;;;;5114987;27;20627;-69
2022/01/08 13:58:01;;;;;;;6.20;3.93;;;;;;;;;;5103920;27;20710;-68
2022/01/08 14:00:30;;;;;;;6.83;4.43;;;;;;;;;;5111606;27;20190;-68
2022/01/08 14:02:56;;;;;;;3.90;3.53;;;;;;;;;;5097852;27;20194;-68
2022/01/08 14:05:22;;;;;;;7.90;3.83;;;;;;;;;;5112905;27;20219;-69
2022/01/08 14:07:47;;;;;;;5.00;3.90;;;;;;;;;;5113163;27;20195;-68
2022/01/08 14:10:14;;;;;;;4.73;3.70;;;;;;;;;;5113742;27;20171;-70
2022/01/08 14:12:39;;;;;;;5.87;4.07;;;;;;;;;;5095123;27;20175;-68
2022/01/08 14:15:06;;;;;;;3.97;3.40;;;;;;;;;;5111462;27;20179;-69
2022/01/08 14:17:32;;;;;;;5.83;3.57;;;;;;;;;;5112634;27;20201;-69
2022/01/08 14:19:58;;;;;;;6.90;3.33;;;;;;;;;;5112223;27;20231;-69
2022/01/08 14:22:23;;;;;;;4.27;3.53;;;;;;;;;;5112484;27;20596;-69
2022/01/08 14:24:51;;;;;;;4.47;3.10;;;;;;;;;;5111679;27;20186;-69
2022/01/08 14:27:19;;;;;;;4.57;2.97;;;;;;;;;;5111684;27;20245;-70
2022/01/08 14:29:46;;;;;;;4.63;3.00;;;;;;;;;;5112863;27;20188;-70
2022/01/08 14:32:12;;;;;;;6.83;3.47;;;;;;;;;;5114492;27;20187;-69
2022/01/08 14:34:45;;;;;;;4.50;3.60;;;;;;;;;;5114820;27;20243;-69
2022/01/08 14:37:14;;;;;;;5.23;3.13;;;;;;;;;;5116459;27;20230;-69
2022/01/08 14:39:43;;;;;;;6.33;3.67;;;;;;;;;;5119708;27;21440;-69
2022/01/08 14:42:13;;;;;;;4.00;3.20;;;;;;;;;;5116545;27;20206;-69
2022/01/08 14:44:59;;;;;;;5.77;3.47;;;;;;;;;;5112911;27;20167;-69
2022/01/08 14:47:37;;;;;;;4.00;3.10;;;;;;;;;;5096406;27;20624;-69
2022/01/08 14:50:06;;;;;;;4.87;3.47;;;;;;;;;;5115156;27;20318;-69
2022/01/08 14:52:31;;;;;;;3.20;2.90;;;;;;;;;;5114351;27;20219;-69
2022/01/08 14:54:57;;;;;;;7.10;2.93;;;;;;;;;;5101245;27;20261;-70